Portada
METAR-TAF:

METAR-TAF

Aeropuertos :

Aeropuerto Internacional Madre Teresa

Tirana, Albania

latitud: 41-20N, longitud: 019-47E, altitud: 89 m

Observación

El informe se hizo hace 28 minutos, a las 01:20 UTC
Viento 2 kt con dirección variable
Temperatura 23°C
Humedad 100%
Presión 1009 hPa
Visibilidad 10 km o más
Nubes dispersas a una altura de 19000 ft

METAR: LATI 230120Z VRB02KT 9999 SCT190 23/23 Q1009 NOSIG

Hora: 03:48 (01:48 UTC)

Pronóstico

El informe se hizo hace 2 horas y 48 minutos, a las 23:00 UTC
Pronóstico válido del 23 a las 00 UTC al 23 a las 24 UTC
Viento 3 kt con dirección variable
Visibilidad 10 km o más
sin nubes por debajo de 1500 m y sin presencia de cumulonimbus.
Temporalmente
del 23 a las 10 UTC al 23 a las 16 UTC
Viento 14 kt del noroeste

TAF: LATI 222300Z 2300/2324 VRB03KT CAVOK TX36/2312Z TN22/2304Z TEMPO 2310/2316 32014KT

Observaciones y pronósticos meteorológicos de más de 4000 aeropuertos (mensajes METAR y TAF).

Los puntos amarillos y rojos representan las estaciones disponibles.

Ponga el ratón en el punto deseado para ver el nombre de la estación.

Haga clic para ver las observaciones y los pronósticos meteorológicos.

Para cambiar el mapa : haga clic en los botones verdes con una cruz de color negro para hacer un zoom, en el botón verde con un guión para alejar o en las flechas verdes para mapas adyacentes.


METAR-TAF: